• Join FlightAware (Why Join?)
  • Login
  • US Flag 
02:39PM EDT


 

Airport Tracker/Info


-or-


 

Live Flight TrackerFlight Track Log ✈ N1570N ✈ 14-May-2013 ✈ KBPK - KOUN

Flight Track Log - Related Links

Times and Time Zones

All times are in EDT time to prevent confusion due to time zone crossing. See the N1570N flight status page for this flight to view local times or setup timezone preferences in your user account.

Time Position Orientation Groundspeed Altitude Reporting Facility
EDT Latitude Longitude Course Direction KTS MPH feet Rate Location/Type
06:19PM 36.3344 -92.6033 257° West 169 194 6,000  Level Memphis Center
06:20PM 36.3294 -92.6547 263° West 153 176 6,000 -60 Level Memphis Center
06:21PM 36.3178 -92.7111 256° West 159 183 5,900 -60 Descending Memphis Center
06:22PM 36.2878 -92.7592 232° Southwest 164 189 5,900  Level Memphis Center
06:23PM 36.2578 -92.8047 231° Southwest 175 201 6,000  Climbing Memphis Center
06:24PM 36.2275 -92.8500 230° Southwest 175 201 6,000  Level Memphis Center
06:25PM 36.2915 -92.7786 257° West  Level FlightAware Approximate
06:25PM 36.2119 -92.9036 250° West 175 201 6,000  Level Memphis Center
06:26PM 36.1983 -92.9622 254° West 170 196 5,900 -60 Descending Memphis Center
06:27PM 36.1867 -93.0186 256° West 170 196 5,900  Level Memphis Center
06:28PM 36.1769 -93.0747 258° West 170 196 6,000  Climbing Memphis Center
06:29PM 36.1653 -93.1308 256° West 170 196 6,000  Level Memphis Center
06:30PM 36.1558 -93.1872 258° West 170 196 6,000  Level Memphis Center
06:31PM 36.1442 -93.2408 255° West 170 196 6,000  Level Memphis Center
06:32PM 36.1325 -93.2969 256° West 165 190 6,100  Climbing Memphis Center
06:33PM 36.1228 -93.3531 258° West 165 190 6,000 -60 Descending Memphis Center
06:34PM 36.1108 -93.4117 256° West 165 190 6,000  Level Memphis Center
06:35PM 36.0989 -93.4703 256° West 165 190 6,100  Climbing Memphis Center
06:36PM 36.0892 -93.5292 258° West 170 196 6,000 -60 Descending Memphis Center
06:37PM 36.0750 -93.5903 254° West 177 204 6,000 60 Level Memphis Center
06:38PM 36.0631 -93.6461 255° West 177 204 6,200  Climbing Memphis Center
06:39PM 36.0511 -93.7047 256° West 183 211 6,000 -120 Descending Memphis Center
06:40PM 36.0414 -93.7633 258° West 183 211 6,000  Level Memphis Center
06:41PM 36.0292 -93.8219 256° West 183 211 6,100  Climbing Memphis Center
06:42PM 36.0192 -93.8806 258° West 183 211 6,000 -60 Descending Memphis Center
06:43PM 36.0072 -93.9389 256° West 183 211 6,000  Level Memphis Center
06:46PM 35.9833 -94.0647 257° West 173 199 6,000 -60 Level Kansas City Center
06:47PM 35.9719 -94.1222 256° West 172 198 5,900 -60 Descending Kansas City Center
06:48PM 35.9600 -94.1792 255° West 171 197 5,900  Level Kansas City Center
06:49PM 35.9497 -94.2361 257° West 171 197 5,900  Level Kansas City Center
06:50PM 35.9381 -94.2925 256° West 170 196 5,900  Level Kansas City Center
06:51PM 35.9264 -94.3492 256° West 169 194 5,900  Level Kansas City Center
06:52PM 35.9144 -94.4053 255° West 169 194 6,000  Climbing Kansas City Center
06:53PM 35.9017 -94.4725 257° West 169 194 5,900 -60 Descending Kansas City Center
06:54PM 35.8903 -94.5286 256° West 168 193 5,900 60 Level Kansas City Center
06:54PM 35.8861 -94.5436 251° West 175 201 6,000 60 Climbing Memphis Center
06:55PM 35.8758 -94.5994 257° West 175 201 6,000  Level Memphis Center
06:56PM 35.8636 -94.6550 255° West 175 201 6,100  Climbing Memphis Center
06:57PM 35.8511 -94.7133 255° West 175 201 6,100 -60 Level Memphis Center
06:58PM 35.8386 -94.7742 256° West 175 201 6,000  Descending Memphis Center
06:59PM 35.8283 -94.8297 257° West 175 201 6,100 60 Climbing Memphis Center
07:00PM 35.8156 -94.8881 255° West 181 208 6,200 -60 Climbing Memphis Center
07:01PM 35.8033 -94.9436 255° West 181 208 6,000 -120 Descending Memphis Center
07:02PM 35.7928 -95.0019 257° West 181 208 6,000 -60 Level Memphis Center
07:03PM 35.7800 -95.0628 256° West 181 208 5,900 -60 Descending Memphis Center
07:05PM 35.7567 -95.1675 255° West 172 198 5,900  Level Kansas City Center
07:06PM 35.7411 -95.2361 254° West 172 198 5,900  Level Kansas City Center
07:07PM 35.7300 -95.2939 257° West 173 199 6,000  Climbing Kansas City Center
07:08PM 35.7172 -95.3500 254° West 171 197 5,900 -60 Descending Kansas City Center
07:09PM 35.7092 -95.3994 259° West 184 212 5,900  Level Fort Worth Center
07:10PM 35.6956 -95.4586 254° West 184 212 6,000 60 Climbing Fort Worth Center
07:10PM 35.6928 -95.4650 242° Southwest 175 201 6,000  Level Kansas City Center
07:11PM 35.6806 -95.5206 255° West 170 196 6,000  Level Kansas City Center
07:12PM 35.6681 -95.5769 255° West 170 196 6,000  Level Kansas City Center
07:13PM 35.6536 -95.6464 256° West 174 200 6,000  Level Kansas City Center
07:14PM 35.6408 -95.7025 254° West 173 199 6,000  Level Kansas City Center
07:16PM 35.6294 -95.7592 256° West 170 196 6,000  Level Kansas City Center
07:16PM 35.6231 -95.7947 258° West 179 206 6,000 -120 Level Fort Worth Center
07:17PM 35.6114 -95.8536 256° West 179 206 5,900 -60 Descending Fort Worth Center
07:18PM 35.5953 -95.9075 250° West 184 212 5,900  Level Fort Worth Center
07:19PM 35.5814 -95.9614 252° West 184 212 5,900  Level Fort Worth Center
07:20PM 35.5694 -96.0178 255° West 184 212 5,900  Level Fort Worth Center
07:21PM 35.5575 -96.0742 255° West 184 212 6,000  Climbing Fort Worth Center
07:22PM 35.5458 -96.1328 256° West 184 212 6,000  Level Fort Worth Center
07:23PM 35.5317 -96.1867 252° West 184 212 6,000 -60 Level Fort Worth Center
07:24PM 35.5197 -96.2431 255° West 184 212 5,900 -60 Descending Fort Worth Center
07:25PM 35.5097 -96.3017 258° West 184 212 5,900  Level Fort Worth Center
07:26PM 35.4956 -96.3581 253° West 184 212 5,900  Level Fort Worth Center
07:27PM 35.4836 -96.4169 256° West 184 212 6,000  Climbing Fort Worth Center
07:28PM 35.4694 -96.4731 253° West 184 212 5,900 -60 Descending Fort Worth Center
07:29PM 35.4575 -96.5319 256° West 184 212 5,900  Level Fort Worth Center
07:30PM 35.4453 -96.5881 255° West 184 212 6,000  Climbing Fort Worth Center
07:31PM 35.4331 -96.6467 256° West 184 212 6,000 -60 Level Fort Worth Center
07:32PM 35.4189 -96.7028 253° West 184 212 5,900 -120 Descending Fort Worth Center
07:33PM 35.4128 -96.7411 259° West 176 203 5,900 60 Level Fort Worth Center
07:33PM 35.4067 -96.7617 250° West 184 212 6,000  Climbing Fort Worth Center
07:33PM 35.4006 -96.7947 257° West 176 203 5,900  Descending Fort Worth Center
07:34PM 35.3944 -96.8178 252° West 184 212 6,000  Climbing Fort Worth Center
07:34PM 35.3903 -96.8406 257° West 176 203 5,900 -240 Descending Fort Worth Center
07:35PM 35.3800 -96.8764 251° West 184 212 5,800  Descending Fort Worth Center
07:35PM 35.3761 -96.9044 260° West 178 205 5,900 60 Climbing Fort Worth Center
07:36PM 35.3658 -96.9400 250° West 184 212 5,900  Level Fort Worth Center
07:36PM 35.3617 -96.9631 258° West 179 206 5,900  Level Fort Worth Center
07:37PM 35.3533 -96.9986 254° West 184 212 5,900 -240 Level Fort Worth Center
07:37PM 35.3494 -97.0217 258° West 180 207 5,700 -420 Descending Fort Worth Center
07:38PM 35.3389 -97.0625 252° West 184 212 5,500 -300 Descending Fort Worth Center